Data for 09/19/2013

Time Sea-Level Adjusted Pressure Absolute Pressure Temperature Relative Humidity Dew Point   
(mb) (inHg) (mb) (inHg) (C) (F) (%) (C) (F)
00:05 1021 30.15 850 25.1 6.6 43.9 77 2.8 37.1
00:10 1021 30.15 850 25.1 6.5 43.8 76 2.7 36.9
00:15 1021 30.15 850 25.1 6.5 43.7 77 2.7 36.9
00:20 1021 30.15 850 25.1 6.4 43.6 77 2.7 36.8
00:25 1021 30.15 850 25.1 6.5 43.7 77 2.8 37.1
00:30 1021 30.15 850 25.1 6.5 43.7 76 2.6 36.6
00:35 1021 30.15 850 25.1 6.5 43.8 77 2.9 37.2
00:40 1021 30.15 850 25.1 6.3 43.3 80 3.1 37.5
00:45 1021 30.15 850 25.1 6.2 43.2 78 2.6 36.7
00:50 1021 30.15 850 25.1 6.5 43.7 78 2.9 37.2
00:55 1021 30.15 850 25.1 6.6 43.9 76 2.7 36.8
01:00 1021 30.15 850 25.1 6.8 44.2 77 3 37.4
01:05 1021 30.15 850 25.1 6.8 44.3 76 2.9 37.3
01:10 1021 30.15 850 25.1 7 44.5 73 2.4 36.4
01:15 1021 30.15 850 25.1 7.2 45 73 2.6 36.7
01:20 1021 30.15 851 25.13 7.3 45.1 73 2.8 37
01:25 1021 30.15 851 25.13 7.4 45.2 72 2.6 36.7
01:30 1021 30.15 851 25.13 7.3 45.1 75 3.2 37.7
01:35 1021 30.15 851 25.13 7.2 44.9 76 3.3 37.9
01:40 1021 30.15 851 25.13 7 44.7 77 3.3 38
01:45 1021 30.15 851 25.13 6.9 44.4 80 3.6 38.5
01:50 1021 30.15 851 25.13 6.5 43.7 83 3.8 38.8
01:55 1021 30.15 851 25.13 6.3 43.3 83 3.6 38.5
02:00 1021 30.15 851 25.13 6.3 43.3 82 3.5 38.2
02:05 1021 30.15 851 25.13 6.5 43.6 80 3.2 37.8
02:10 1021 30.15 851 25.13 6.6 43.9 81 3.6 38.4
02:15 1021 30.15 851 25.13 6.7 44 82 3.8 38.8
02:20 1021 30.15 851 25.13 6.7 44 78 3.2 37.7
02:25 1021 30.15 851 25.13 6.7 44.1 80 3.5 38.2
02:30 1021 30.15 851 25.13 6.7 44 80 3.6 38.4
02:35 1021 30.15 851 25.13 6.6 44 80 3.5 38.4
02:40 1022 30.18 851 25.13 6.7 44 80 3.4 38.2
02:45 1022 30.18 851 25.13 6.8 44.2 79 3.4 38.1
02:50 1022 30.18 851 25.13 6.9 44.4 76 2.9 37.3
02:55 1022 30.18 851 25.13 6.9 44.4 77 3.1 37.5
03:00 1022 30.18 851 25.13 6.8 44.2 78 3.3 38
03:05 1022 30.18 851 25.13 6.7 44 79 3.3 37.9
03:10 1022 30.18 851 25.13 6.8 44.2 77 3 37.4
03:15 1022 30.18 851 25.13 6.9 44.4 76 3 37.4
03:20 1022 30.18 851 25.13 6.9 44.5 77 3.2 37.8
03:25 1022 30.18 851 25.13 7.1 44.7 77 3.2 37.8
03:30 1022 30.18 851 25.13 7.1 44.7 78 3.4 38.1
03:35 1022 30.18 851 25.13 7 44.6 82 4.1 39.3
03:40 1022 30.18 851 25.13 6.7 44 83 4.1 39.3
03:45 1022 30.18 851 25.13 6.5 43.6 85 4.1 39.3
03:50 1022 30.18 851 25.13 6.3 43.3 85 4 39.2
03:55 1022 30.18 851 25.13 6.3 43.3 81 3.3 37.9
04:00 1022 30.18 851 25.13 6.5 43.7 80 3.3 37.9
04:05 1022 30.18 851 25.13 6.7 44 81 3.6 38.5
04:10 1022 30.18 851 25.13 6.6 43.9 83 4 39.1
04:15 1022 30.18 851 25.13 6.4 43.4 83 3.7 38.7
04:20 1022 30.18 851 25.13 6.4 43.5 82 3.5 38.4
04:25 1022 30.18 851 25.13 6.5 43.7 81 3.5 38.3
04:30 1022 30.18 851 25.13 6.5 43.8 77 2.7 36.9
04:35 1022 30.18 851 25.13 6.9 44.4 75 2.8 37.1
04:40 1022 30.18 851 25.13 7 44.6 77 3.2 37.8
04:45 1022 30.18 851 25.13 6.9 44.5 74 2.6 36.7
04:50 1022 30.18 851 25.13 7 44.7 76 3.1 37.6
04:55 1022 30.18 851 25.13 7 44.5 79 3.5 38.3
05:00 1022 30.18 851 25.13 6.7 44 81 3.6 38.5
05:05 1022 30.18 851 25.13 6.5 43.7 82 3.6 38.5
05:10 1022 30.18 851 25.13 6.4 43.5 83 3.7 38.6
05:15 1022 30.18 851 25.13 6.4 43.6 81 3.5 38.3
05:20 1022 30.18 851 25.13 6.4 43.6 81 3.4 38.2
05:25 1022 30.18 851 25.13 6.5 43.7 79 3.2 37.7
05:30 1022 30.18 851 25.13 6.6 44 77 2.9 37.2
05:35 1022 30.18 851 25.13 6.7 44.1 78 3.2 37.7
05:40 1022 30.18 852 25.16 6.7 44.1 78 3.2 37.8
05:45 1022 30.18 852 25.16 6.7 44.1 77 3.1 37.5
05:50 1022 30.18 852 25.16 6.8 44.2 79 3.4 38.1
05:55 1022 30.18 852 25.16 6.9 44.4 76 3 37.4
06:00 1023 30.21 852 25.16 7 44.5 76 3 37.3
06:05 1023 30.21 852 25.16 7 44.6 76 3 37.5
06:10 1023 30.21 852 25.16 7 44.7 76 3.2 37.7
06:15 1023 30.21 852 25.16 7.1 44.7 75 2.9 37.3
06:20 1023 30.21 852 25.16 7.1 44.8 80 3.8 38.9
06:25 1023 30.21 852 25.16 6.9 44.5 80 3.8 38.8
06:30 1023 30.21 852 25.16 6.8 44.2 83 4.1 39.4
06:35 1023 30.21 852 25.16 6.6 44 80 3.4 38.2
06:40 1023 30.21 852 25.16 6.7 44.1 79 3.4 38.1
06:45 1023 30.21 852 25.16 6.8 44.2 79 3.4 38.2
06:50 1023 30.21 852 25.16 6.8 44.3 80 3.6 38.5
06:55 1023 30.21 852 25.16 6.9 44.5 79 3.5 38.2
07:00 1023 30.21 852 25.16 7.2 44.9 78 3.6 38.5
07:05 1023 30.21 852 25.16 7.4 45.3 77 3.6 38.6
07:10 1023 30.21 853 25.19 7.5 45.5 76 3.6 38.5
07:15 1023 30.21 853 25.19 7.6 45.6 76 3.7 38.6
07:20 1023 30.21 853 25.19 7.7 45.8 76 3.7 38.7
07:25 1023 30.21 853 25.19 7.7 45.9 74 3.3 38
07:30 1023 30.21 853 25.19 7.8 46.1 72 3.2 37.7
07:35 1023 30.21 853 25.19 7.9 46.3 71 3.1 37.5
07:40 1023 30.21 853 25.19 8 46.4 68 2.5 36.5
07:45 1024 30.24 853 25.19 8.1 46.5 70 2.9 37.2
07:50 1024 30.24 853 25.19 8.4 47.2 69 3.1 37.6
07:55 1024 30.24 853 25.19 8.4 47.2 69 3.2 37.7
08:00 1024 30.24 853 25.19 8.5 47.3 69 3.1 37.6
08:05 1024 30.24 853 25.19 8.7 47.6 68 3.1 37.6
08:10 1024 30.24 853 25.19 9 48.2 66 2.9 37.3
08:15 1024 30.24 853 25.19 9.1 48.4 65 2.9 37.3
08:20 1024 30.24 853 25.19 9.2 48.6 61 2.2 35.9
08:25 1024 30.24 853 25.19 9.7 49.4 58 2 35.6
08:30 1024 30.24 853 25.19 9.6 49.2 59 2 35.5
08:35 1024 30.24 853 25.19 10.1 50.1 58 2.2 36
08:40 1024 30.24 853 25.19 10.1 50.2 59 2.5 36.5
08:45 1024 30.24 853 25.19 11.1 52 55 2.4 36.4
08:50 1024 30.24 853 25.19 12 53.6 51 2.2 35.9
08:55 1024 30.24 853 25.19 11.7 53.1 51 1.9 35.4
09:00 1024 30.24 853 25.19 11.7 53.1 52 2.3 36.1
09:05 1024 30.24 853 25.19 12 53.6 49 1.5 34.7
09:10 1024 30.24 853 25.19 11.7 53.1 50 1.6 35
09:15 1024 30.24 853 25.19 12.1 53.7 47 1.2 34.1
09:20 1024 30.24 853 25.19 11.8 53.3 49 1.6 34.8
09:25 1024 30.24 853 25.19 12.4 54.2 48 1.9 35.3
09:30 1024 30.24 853 25.19 12.9 55.1 44 0.9 33.5
09:35 1024 30.24 853 25.19 12.6 54.7 48 1.9 35.4
09:40 1024 30.24 853 25.19 13.1 55.5 45 1.4 34.5
09:45 1024 30.24 853 25.19 12.9 55.3 46 1.5 34.7
09:50 1024 30.24 853 25.19 13.1 55.6 45 1.4 34.5
09:55 1024 30.24 853 25.19 12.8 55.1 47 1.8 35.3
10:00 1024 30.24 853 25.19 12.7 54.9 46 1.4 34.5
10:05 1024 30.24 853 25.19 13.2 55.8 44 1.4 34.5
10:10 1024 30.24 853 25.19 13.2 55.8 49 2.7 36.9
10:15 1024 30.24 853 25.19 12.3 54.1 48 1.6 34.8
10:20 1024 30.24 853 25.19 12.5 54.5 46 1.3 34.3
10:25 1024 30.24 853 25.19 11.8 53.2 47 0.8 33.5
10:30 1024 30.24 853 25.19 12.9 55.1 44 1.1 33.9
10:35 1024 30.24 853 25.19 13.5 56.3 42 0.9 33.6
10:40 1024 30.24 853 25.19 13 55.4 45 1.5 34.7
10:45 1024 30.24 853 25.19 12.7 54.9 46 1.4 34.5
10:50 1024 30.24 853 25.19 12.6 54.8 43 0.4 32.7
10:55 1024 30.24 853 25.19 13.3 56 43 1.2 34.2
11:00 1024 30.24 853 25.19 13 55.4 45 1.4 34.6
11:05 1024 30.24 853 25.19 13.5 56.2 43 1.1 34
11:10 1024 30.24 853 25.19 14 57.2 42 1.4 34.5
11:15 1024 30.24 853 25.19 13.4 56.2 42 0.7 33.3
11:20 1024 30.24 853 25.19 13.2 55.8 45 1.5 34.7
11:25 1024 30.24 853 25.19 12.9 55.2 44 1.1 34
11:30 1024 30.24 853 25.19 12.7 54.8 46 1.5 34.7
11:35 1024 30.24 853 25.19 11.9 53.4 48 1.2 34.2
11:40 1024 30.24 853 25.19 11.9 53.4 47 1 33.8
11:45 1024 30.24 853 25.19 12.6 54.7 41 -0.4 31.3
11:50 1024 30.24 853 25.19 13.7 56.6 41 0.6 33
11:55 1024 30.24 853 25.19 14.5 58.1 37 0.2 32.3
12:00 1023 30.21 853 25.19 14.7 58.4 36 -0.1 31.8
12:05 1023 30.21 853 25.19 14 57.3 45 2.2 36
12:10 1023 30.21 853 25.19 12.4 54.3 46 1.1 34
12:15 1023 30.21 853 25.19 13.4 56.2 43 1.2 34.1
12:20 1023 30.21 852 25.16 14 57.1 40 0.5 33
12:25 1023 30.21 852 25.16 15.3 59.6 37 0.7 33.3
12:30 1023 30.21 852 25.16 15.8 60.4 37 1.2 34.1
12:35 1023 30.21 852 25.16 16.3 61.3 34 0.6 33.1
12:40 1023 30.21 852 25.16 15.9 60.6 34 0.1 32.2
12:45 1023 30.21 852 25.16 15.9 60.6 34 -0.1 31.9
12:50 1023 30.21 852 25.16 15.5 59.9 35 0.3 32.6
12:55 1023 30.21 852 25.16 15.3 59.5 36 0.3 32.5
13:00 1023 30.21 852 25.16 15.3 59.6 34 -0.3 31.5
13:05 1023 30.21 852 25.16 15.8 60.4 35 0.4 32.8
13:10 1023 30.21 852 25.16 15.6 60 34 -0.3 31.4
13:15 1023 30.21 852 25.16 15.5 59.9 34 -0.4 31.3
13:20 1023 30.21 852 25.16 15.7 60.3 34 0.1 32.2
13:25 1023 30.21 852 25.16 15.9 60.6 34 -0.1 31.9
13:30 1023 30.21 852 25.16 16 60.7 33 -0.2 31.7
13:35 1023 30.21 852 25.16 15.7 60.2 34 -0.2 31.7
13:40 1023 30.21 852 25.16 15.3 59.6 35 0 32.1
13:45 1023 30.21 852 25.16 16 60.8 32 -0.4 31.3
13:50 1023 30.21 852 25.16 16.4 61.5 32 -0.3 31.5
13:55 1023 30.21 852 25.16 16 60.8 35 0.7 33.3
14:00 1023 30.21 852 25.16 15.8 60.4 34 -0 32
14:05 1023 30.21 852 25.16 15.7 60.3 35 0.4 32.6
14:10 1023 30.21 852 25.16 15.5 59.8 34 -0.4 31.3
14:15 1023 30.21 852 25.16 15.1 59.2 36 0.3 32.5
14:20 1023 30.21 852 25.16 14.9 58.8 36 0.1 32.2
14:25 1023 30.21 852 25.16 14.2 57.5 37 -0.1 31.8
14:30 1023 30.21 852 25.16 15.1 59.3 34 -0.7 30.8
14:35 1023 30.21 852 25.16 15.7 60.2 33 -0.3 31.4
14:40 1023 30.21 852 25.16 15.1 59.2 36 0.1 32.2
14:45 1022 30.18 852 25.16 15.9 60.7 31 -0.9 30.3
14:50 1022 30.18 852 25.16 16.4 61.5 33 0.3 32.5
14:55 1022 30.18 852 25.16 16.5 61.6 32 -0.4 31.3
15:00 1022 30.18 852 25.16 16.2 61.2 33 -0.1 31.8
15:05 1022 30.18 852 25.16 16.1 61 33 -0.2 31.6
15:10 1022 30.18 852 25.16 15.9 60.7 33 -0.2 31.6
15:15 1022 30.18 851 25.13 15.9 60.7 33 -0.4 31.4
15:20 1022 30.18 852 25.16 16.5 61.7 31 -0.7 30.8
15:25 1022 30.18 851 25.13 16.8 62.2 33 0.3 32.6
15:30 1022 30.18 851 25.13 16.2 61.1 33 -0 32
15:35 1022 30.18 851 25.13 15.8 60.4 34 -0.1 31.8
15:40 1022 30.18 851 25.13 15.9 60.7 33 -0.3 31.5
15:45 1022 30.18 851 25.13 16.5 61.6 34 0.5 33
15:50 1022 30.18 851 25.13 16.9 62.4 31 -0.2 31.7
15:55 1022 30.18 851 25.13 16.7 62.1 33 0.4 32.8
16:00 1022 30.18 851 25.13 16.4 61.4 33 0 32.1
16:05 1022 30.18 851 25.13 16.1 60.9 35 0.5 33
16:10 1022 30.18 851 25.13 15.3 59.5 36 0.2 32.4
16:15 1022 30.18 851 25.13 15.4 59.6 34 -0.2 31.6
16:20 1022 30.18 851 25.13 15.2 59.4 36 0.2 32.4
16:25 1022 30.18 851 25.13 15.3 59.6 34 -0.4 31.2
16:30 1022 30.18 851 25.13 15.8 60.5 33 -0.4 31.2
16:35 1022 30.18 851 25.13 15.7 60.2 35 0.3 32.6
16:40 1022 30.18 851 25.13 15.1 59.1 35 -0 32
16:45 1022 30.18 851 25.13 14.9 58.8 35 -0.2 31.7
16:50 1022 30.18 851 25.13 15 59.1 36 0.2 32.4
16:55 1022 30.18 851 25.13 14.7 58.4 36 -0 32
17:00 1022 30.18 851 25.13 14.5 58.2 36 -0.1 31.8
17:05 1022 30.18 851 25.13 14.9 58.9 36 0.2 32.3
17:10 1022 30.18 851 25.13 14.7 58.4 37 0.4 32.8
17:15 1022 30.18 851 25.13 14.7 58.5 37 0.2 32.3
17:20 1022 30.18 851 25.13 14.9 58.8 36 0.2 32.3
17:25 1022 30.18 851 25.13 15 59 36 0.3 32.6
17:30 1022 30.18 851 25.13 15 59.1 36 0 32
17:35 1022 30.18 851 25.13 14.7 58.4 38 0.6 33
17:40 1022 30.18 851 25.13 14.2 57.5 38 0 32.1
17:45 1022 30.18 851 25.13 14.2 57.5 38 0.1 32.2
17:50 1022 30.18 851 25.13 14 57.2 37 -0.4 31.2
17:55 1022 30.18 851 25.13 13.9 57.1 37 -0.4 31.2
18:00 1022 30.18 851 25.13 13.9 57 38 -0.2 31.7
18:05 1022 30.18 851 25.13 13.8 56.9 39 0.1 32.2
18:10 1022 30.18 851 25.13 13.7 56.6 40 0.4 32.7
18:15 1021 30.15 851 25.13 13.4 56.2 40 0.1 32.2
18:20 1021 30.15 851 25.13 13.3 55.9 40 -0.1 31.8
18:25 1021 30.15 851 25.13 13.3 55.9 40 -0.1 31.8
18:30 1021 30.15 851 25.13 13.2 55.8 41 0.3 32.5
18:35 1021 30.15 851 25.13 13.2 55.8 43 0.8 33.5
18:40 1021 30.15 851 25.13 13.1 55.6 42 0.6 33.2
18:45 1021 30.15 851 25.13 13.1 55.6 42 0.5 32.8
18:50 1021 30.15 851 25.13 13 55.5 48 2.3 36.2
18:55 1021 30.15 851 25.13 12.3 54.1 53 3.1 37.6
19:00 1021 30.15 851 25.13 11.7 53 57 3.5 38.3
19:05 1021 30.15 851 25.13 11 51.8 60 3.5 38.3
19:10 1021 30.15 851 25.13 10.4 50.7 62 3.4 38.1
19:15 1021 30.15 851 25.13 9.9 49.8 62 3.1 37.5
19:20 1021 30.15 851 25.13 9.6 49.4 64 3.3 37.9
19:25 1022 30.18 851 25.13 9.2 48.5 67 3.5 38.3
19:30 1022 30.18 851 25.13 8.8 47.8 69 3.5 38.3
19:35 1022 30.18 851 25.13 8.5 47.3 69 3.2 37.7
19:40 1022 30.18 851 25.13 8.4 47.1 66 2.5 36.4
19:45 1022 30.18 851 25.13 9.1 48.4 63 2.4 36.4
19:50 1022 30.18 851 25.13 9.3 48.7 63 2.6 36.6
19:55 1022 30.18 851 25.13 9.3 48.7 63 2.6 36.7
20:00 1022 30.18 851 25.13 9.2 48.5 64 2.7 36.9
20:05 1022 30.18 851 25.13 9.1 48.4 64 2.6 36.7
20:10 1022 30.18 851 25.13 9.1 48.3 64 2.6 36.6
20:15 1022 30.18 851 25.13 9 48.2 63 2.5 36.5
20:20 1022 30.18 851 25.13 8.9 48 65 2.6 36.7
20:25 1022 30.18 851 25.13 8.8 47.8 65 2.5 36.5
20:30 1022 30.18 851 25.13 8.8 47.8 65 2.5 36.5
20:35 1022 30.18 851 25.13 8.7 47.7 65 2.4 36.4
20:40 1022 30.18 851 25.13 8.6 47.4 65 2.5 36.5
20:45 1022 30.18 851 25.13 8.4 47.1 66 2.4 36.3
20:50 1022 30.18 851 25.13 8.3 47 66 2.3 36.2
20:55 1022 30.18 851 25.13 8.3 46.9 65 2.2 36
21:00 1022 30.18 851 25.13 8.4 47.1 65 2.2 36
21:05 1022 30.18 851 25.13 8.4 47.1 65 2.3 36.1
21:10 1022 30.18 851 25.13 8.3 47 65 2.3 36.1
21:15 1022 30.18 851 25.13 8.2 46.7 66 2.2 36
21:20 1022 30.18 851 25.13 8.1 46.5 67 2.3 36.2
21:25 1022 30.18 851 25.13 7.8 46.1 68 2.3 36.2
21:30 1021 30.15 851 25.13 7.6 45.8 67 1.9 35.5
21:35 1021 30.15 851 25.13 7.9 46.1 66 1.9 35.4
21:40 1021 30.15 851 25.13 8.1 46.6 63 1.6 35
21:45 1021 30.15 851 25.13 8.4 47.1 63 1.8 35.2
21:50 1021 30.15 851 25.13 8.3 47 64 1.9 35.4
21:55 1021 30.15 851 25.13 8.4 47.1 64 1.9 35.5
22:00 1021 30.15 851 25.13 8.1 46.6 64 1.8 35.2
22:05 1021 30.15 851 25.13 8.1 46.7 64 1.8 35.3
22:10 1021 30.15 851 25.13 7.9 46.3 65 1.7 35.1
22:15 1021 30.15 851 25.13 8 46.4 62 1.2 34.1
22:20 1021 30.15 851 25.13 8.3 46.9 62 1.3 34.4
22:25 1021 30.15 851 25.13 8.4 47 61 1.4 34.5
22:30 1021 30.15 851 25.13 8.4 47.1 61 1.3 34.3
22:35 1021 30.15 851 25.13 8.2 46.8 62 1.3 34.4
22:40 1021 30.15 851 25.13 8.3 47 60 1 33.8
22:45 1021 30.15 850 25.1 8.4 47.2 61 1.3 34.4
22:50 1021 30.15 850 25.1 8.2 46.7 60 1 33.8
22:55 1021 30.15 850 25.1 8.2 46.7 61 1.1 33.9
23:00 1021 30.15 850 25.1 8.1 46.5 61 1 33.7
23:05 1021 30.15 850 25.1 8.1 46.5 61 1.1 33.9
23:10 1021 30.15 850 25.1 7.9 46.2 62 1 33.8
23:15 1021 30.15 850 25.1 7.8 46 62 1 33.8
23:20 1021 30.15 850 25.1 7.7 45.8 62 1 33.7
23:25 1021 30.15 850 25.1 7.6 45.7 62 0.8 33.4
23:30 1021 30.15 850 25.1 7.5 45.5 63 1 33.8
23:35 1021 30.15 850 25.1 7.3 45.1 63 0.7 33.3
23:40 1021 30.15 850 25.1 7.4 45.3 63 0.8 33.4
23:45 1021 30.15 850 25.1 7.5 45.6 62 0.8 33.4
23:50 1021 30.15 850 25.1 7.6 45.7 62 0.7 33.3
23:55 1021 30.15 850 25.1 7.6 45.6 62 0.8 33.4
24:00 1021 30.15 850 25.1 7.7 45.9 61 0.8 33.4